Latest Coastal Weather Observations for Adelaide Airport

IDS60701

Issued at 7:21 am CST Thursday 17 August 2017 (issued every 10 minutes, with the page automatically refreshed every 10 minutes)

About coastal observations | Map of coastal stations | Coastal observations for SA | Marine services | Other Formats
Station Details ID: 023034 Name: ADELAIDE AIRPORT Lat: -34.95 Lon: 138.52 Height: 2.0 m
Data from the previous 72 hours. | See also: Recent months at Adelaide Airport
Date/Time
CST
Temp
°C
Wind Pressure Rain since
9am
mm
Weather Cloud Vis
km
Sea
Height
m
Swell
Dir  Spd
kts
Gust
kts
hPa Trend Height
m
Period
s
Dir
17/07:00am 12.4 NW 14 17 1007.7 - 3.2 - Mostly clear 10 - - - -
17/06:30am 12.6 NW 18 24 1007.2 - 3.2 - Partly cloudy 10 - - - -
17/06:00am 12.6 NW 15 20 1007.1 R 3.2 Fine Mostly cloudy 25 - - - -
17/05:33am 12.7 NW 18 28 1006.8 - 3.2 - Mostly clear 10 - - - -
17/05:30am 12.6 NW 17 23 1006.8 - 3.2 - Mostly clear 10 - - - -
17/05:00am 12.5 WNW 18 25 1006.5 - 3.2 - Mostly clear 10 - - - -
17/04:30am 12.8 NW 20 27 1006.5 - 3.2 - Mostly clear 10 - - - -
17/04:00am 12.6 NW 19 25 1006.3 - 3.2 - Mostly clear 10 - - - -
17/03:30am 12.1 NW 18 27 1006.4 - 3.0 - Mostly clear 10 - - - -
17/03:00am 12.3 NW 18 24 1006.5 F 3.0 Recent precip. Mostly cloudy 25 - - - -
17/02:30am 12.1 NW 17 22 1006.6 - 3.0 - Mostly clear 10 - - - -
17/02:00am 12.5 NW 18 26 1006.7 - 3.0 Showers Mostly clear 10 - - - -
17/01:47am 13.1 NW 19 29 1006.8 - 3.0 - Mostly clear 10 - - - -
17/01:30am 13.1 NW 18 22 1006.8 - 3.0 - Mostly clear 10 - - - -
17/01:00am 12.9 NW 16 21 1007.0 - 3.0 - Mostly clear 10 - - - -
17/12:30am 12.8 NW 18 26 1007.3 - 3.0 - Mostly clear 10 - - - -
17/12:20am 12.8 NNW 18 29 1007.4 - 3.0 - Mostly clear 10 - - - -
17/12:00am 13.0 NW 20 26 1007.6 F 3.0 Showers Mostly cloudy 15 - - - -
 
Date/Time
CST
Temp
°C
Wind Pressure Rain since
9am
mm
Weather Cloud Vis
km
Sea
Height
m
Swell
Dir  Spd
kts
Gust
kts
hPa Trend Height
m
Period
s
Dir
16/11:30pm 13.1 NW 18 26 1007.9 - 3.0 - Mostly clear 10 - - - -
16/11:00pm 13.1 NW 16 20 1008.1 - 3.0 - Mostly clear 10 - - - -
16/10:33pm 13.2 NW 17 27 1008.3 - 3.0 - Mostly clear 10 - - - -
16/10:30pm 13.2 NW 17 22 1008.4 - 3.0 - Mostly clear 10 - - - -
16/10:00pm 13.1 NW 17 22 1008.4 - 3.0 Rain Partly cloudy 10 - - - -
16/09:51pm 13.2 NW 15 20 1008.4 - 3.0 Rain Partly cloudy 10 - - - -
16/09:30pm 12.9 NNW 15 25 1008.6 - 2.8 - Partly cloudy 8 - - - -
16/09:00pm 13.3 WNW 13 18 1008.5 R 1.2 Showers Mostly cloudy 9 - - - -
16/08:30pm 13.6 WNW 16 20 1008.1 - 1.0 - Mostly clear 10 - - - -
16/08:00pm 13.1 WNW 17 22 1007.9 - 1.0 - Mostly clear 10 - - - -
16/07:30pm 13.5 WNW 16 21 1007.9 - 1.0 - Mostly clear 10 - - - -
16/07:00pm 13.3 WNW 13 17 1007.5 - 1.0 - Mostly clear 10 - - - -
16/06:30pm 12.6 NW 24 33 1007.5 - 1.0 - Mostly clear 7 - - - -
16/06:21pm 13.3 NW 18 32 1007.4 - 0.2 Showers Partly cloudy 4 - - - -
16/06:19pm 13.7 NW 16 24 1007.2 - 0.2 Rain Mostly clear 6 - - - -
16/06:00pm 14.5 NW 15 20 1006.8 F 0.0 Fine Mostly cloudy 25 - - - -
16/05:30pm 14.6 NW 17 20 1006.9 - 0.0 - Partly cloudy 10 - - - -
16/05:00pm 15.4 NW 15 19 1006.8 - 0.0 - Partly cloudy 10 - - - -
16/04:30pm 15.4 NNW 16 22 1006.8 - 0.0 - Mostly clear 10 - - - -
16/04:00pm 15.8 NW 16 20 1006.7 - 0.0 - Partly cloudy 10 - - - -
16/03:30pm 15.2 NW 16 21 1006.7 - 0.0 - Mostly clear 10 - - - -
16/03:00pm 16.1 NNW 16 21 1007.0 R 0.0 Fine Mostly cloudy 20 - - - -
16/02:30pm 15.4 NW 14 21 1007.0 - 0.0 - Mostly clear 10 - - - -
16/02:00pm 15.4 NW 16 19 1007.0 - 0.0 - Mostly clear 10 - - - -
16/01:30pm 15.9 NW 16 20 1007.2 - 0.0 - Mostly clear 10 - - - -
16/01:00pm 15.5 NW 17 21 1007.4 - 0.0 - Mostly clear 10 - - - -
16/12:30pm 15.7 NW 16 20 1007.5 - 0.0 - Mostly clear 10 - - - -
16/12:00pm 15.6 WNW 17 22 1007.8 R 0.0 Fine Mostly cloudy 25 - - - -
16/11:30am 15.3 NW 17 22 1007.9 - 0.0 - Mostly clear 10 - - - -
16/11:00am 14.6 NW 16 19 1007.8 - 0.0 - Mostly clear 10 - - - -
16/10:30am 14.7 NW 15 19 1007.7 - 0.0 - Mostly clear 10 - - - -
16/10:00am 14.2 NW 15 19 1007.4 - 0.0 - Mostly clear 10 - - - -
16/09:30am 13.1 NW 15 21 1007.1 - 0.0 - Mostly clear 10 - - - -
16/09:00am 13.6 NW 16 21 1007.0 F 10.6 Recent precip. Partly cloudy 20 - - - -
16/08:30am 12.9 NW 13 21 1007.0 - 10.6 - Mostly clear 10 - - - -
16/08:08am 12.8 NW 12 17 1007.0 - 10.4 - Mostly clear 7 - - - -
16/08:06am 13.1 NNW 11 17 1006.9 - 10.4 Showers Mostly clear 5 - - - -
16/08:00am 13.1 NNW 12 16 1006.7 - 10.4 - Mostly clear 10 - - - -
16/07:30am 12.8 NW 13 17 1006.3 - 10.4 - Mostly clear 10 - - - -
16/07:00am 12.7 NW 13 16 1006.0 - 10.4 - Mostly clear 10 - - - -
16/06:30am 12.6 NW 13 16 1005.7 - 10.4 - Partly cloudy 10 - - - -
16/06:00am 12.5 NW 11 15 1005.6 R 10.4 Haze Partly cloudy 20 - - - -
16/05:30am 12.3 WNW 9 13 1005.2 - 10.4 - Mostly clear 10 - - - -
16/05:00am 12.4 WNW 16 21 1004.8 - 10.4 - Partly cloudy 10 - - - -
16/04:30am 12.8 WNW 17 21 1004.0 - 10.4 - Partly cloudy 10 - - - -
16/04:00am 12.8 WNW 18 22 1003.6 - 10.4 - Mostly clear 10 - - - -
16/03:30am 12.9 WNW 19 26 1003.3 - 10.4 - Mostly clear 10 - - - -
16/03:00am 12.8 WNW 18 26 1003.1 R 10.4 Haze Mostly clear 20 - - - -
16/02:30am 13.2 WNW 19 26 1003.0 - 10.4 - Mostly clear 10 - - - -
16/02:00am 13.4 WNW 21 29 1003.0 - 10.4 - Mostly clear 10 - - - -
16/01:46am 13.4 WNW 21 32 1003.0 - 10.4 - Mostly clear 10 - - - -
16/01:30am 13.5 WNW 22 31 1002.9 - 10.4 - Mostly clear 10 - - - -
16/01:00am 13.6 WNW 22 30 1003.0 - 10.4 - Partly cloudy 10 - - - -
16/12:30am 13.7 WNW 24 35 1003.0 - 10.4 - Mostly clear 10 - - - -
16/12:20am 13.9 WNW 21 34 1002.9 - 10.4 - Partly cloudy 10 - - - -
16/12:00am 13.6 NW 18 22 1002.8 F 10.4 Haze Partly cloudy 20 - - - -
 
Date/Time
CST
Temp
°C
Wind Pressure Rain since
9am
mm
Weather Cloud Vis
km
Sea
Height
m
Swell
Dir  Spd
kts
Gust
kts
hPa Trend Height
m
Period
s
Dir
15/11:30pm 13.5 NW 17 24 1002.7 - 10.4 - Mostly clear 10 - - - -
15/11:00pm 13.6 NW 16 20 1002.8 - 10.4 - Mostly clear 10 - - - -
15/10:30pm 14.1 WNW 18 26 1002.8 - 10.2 - Mostly clear 10 - - - -
15/10:00pm 14.1 WNW 17 23 1002.7 - 10.2 - Mostly clear 10 - - - -
15/09:30pm 14.3 WNW 17 21 1002.8 - 10.2 - Mostly clear 10 - - - -
15/09:00pm 14.6 WNW 19 24 1002.8 F 10.2 Haze Mostly cloudy 20 - - - -
15/08:33pm 14.7 NW 20 30 1002.4 - 10.2 - Mostly clear 10 - - - -
15/08:30pm 14.7 NW 18 26 1002.3 - 10.2 - Mostly clear 10 - - - -
15/08:00pm 14.7 NW 17 23 1002.4 - 10.2 - Partly cloudy 10 - - - -
15/07:30pm 14.7 NNW 16 21 1002.3 - 10.2 - Mostly clear 10 - - - -
15/07:00pm 14.9 NNW 18 29 1002.3 - 10.2 - Mostly clear 10 - - - -
15/06:53pm 14.7 NNW 15 29 1002.4 - 10.2 - Mostly clear 10 - - - -
15/06:30pm 14.5 NNW 12 16 1002.5 - 10.0 - Mostly clear 10 - - - -
15/06:00pm 14.3 NNW 13 17 1002.4 F 10.0 Distant precip. Mostly cloudy 15 - - - -
15/05:30pm 13.9 NNW 10 14 1002.5 - 10.0 - Mostly clear 10 - - - -
15/05:00pm 14.1 NNW 15 18 1002.4 - 10.0 - Mostly clear 10 - - - -
15/04:30pm 14.4 NNW 17 21 1002.3 - 10.0 - Mostly clear 10 - - - -
15/04:00pm 14.5 NW 14 18 1002.6 - 10.0 Rain Mostly clear 8 - - - -
15/03:30pm 15.1 NNW 18 23 1002.6 - 8.6 - Mostly clear 3 - - - -
15/03:00pm 15.5 N 17 25 1002.1 F 8.0 Rain Cloudy 5 - - - -
15/02:30pm 15.5 N 17 21 1002.7 - 7.2 - Partly cloudy 5 - - - -
15/02:00pm 15.7 N 17 22 1003.2 - 6.4 Rain Mostly clear 8 - - - -
15/01:47pm 15.7 N 16 26 1002.8 - 6.4 Rain Partly cloudy 10 - - - -
15/01:30pm 15.7 N 16 23 1002.9 - 6.2 - Mostly clear 8 - - - -
15/01:00pm 15.7 N 17 21 1004.1 - 5.8 Rain Mostly clear 7 - - - -
15/12:30pm 15.8 N 13 18 1004.6 - 5.0 - Mostly clear 8 - - - -
15/12:00pm 15.8 N 16 21 1004.9 F 4.4 Rain Cloudy 8 - - - -
15/11:30am 16.0 N 14 18 1005.4 - 3.6 - Mostly clear 8 - - - -
15/11:00am 16.1 N 15 19 1005.7 - 3.2 Rain Mostly clear 9 - - - -
15/10:51am 16.1 N 15 21 1006.0 - 3.0 Rain Mostly clear 9 - - - -
15/10:30am 16.0 N 13 18 1006.5 - 2.6 - Mostly clear 7 - - - -
15/10:00am 15.8 N 10 14 1007.0 - 1.6 Rain Mostly clear 5 - - - -
15/09:30am 15.6 N 15 20 1006.9 - 0.8 - Mostly clear 5 - - - -
15/09:00am 15.8 N 11 16 1007.3 F 6.4 Rain Cloudy 5 - - - -
15/08:30am 15.7 N 12 17 1007.8 - 4.8 - Mostly clear 3 - - - -
15/08:21am 15.8 N 12 16 1007.5 - 4.6 Rain Mostly clear 5 - - - -
15/08:00am 15.5 NNE 14 18 1006.4 - 4.6 - Mostly clear 10 - - - -
15/07:30am 15.7 N 15 19 1007.5 - 4.6 - Mostly clear 9 - - - -
15/07:00am 15.6 N 15 21 1008.4 - 4.2 - Mostly clear 9 - - - -
15/06:48am 15.7 N 15 25 1008.2 - 4.0 Rain Mostly clear 10 - - - -
15/06:30am 15.8 N 15 18 1008.5 - 4.0 - Mostly clear 10 - - - -
15/06:00am 16.0 N 13 18 1008.2 R 3.2 Rain Cloudy 12 - - - -
15/05:30am 16.3 NNW 11 15 1008.2 - 2.2 - Mostly clear 10 - - - -
15/05:00am 15.9 N 15 19 1007.3 - 1.6 - Partly cloudy 10 - - - -
15/04:30am 16.1 N 13 18 1007.5 - 1.2 - Partly cloudy 10 - - - -
15/04:00am 16.4 N 13 20 1007.5 - 1.0 Rain Partly cloudy 10 - - - -
15/03:30am 16.4 N 17 24 1007.2 - 0.6 - Cloudy 10 - - - -
15/03:00am 16.4 N 17 20 1007.4 F 0.6 Rain Mostly cloudy 25 - - - -
15/02:41am 16.3 NNE 15 26 1008.0 - 0.6 Rain Partly cloudy 10 - - - -
15/02:30am 16.1 N 9 14 1008.5 - 0.6 - Partly cloudy 10 - - - -
15/02:00am 16.5 NNE 12 17 1008.5 - 0.4 - Cloudy 10 - - - -
15/01:30am 16.6 N 12 16 1008.9 - 0.4 - Partly cloudy 10 - - - -
15/01:00am 17.7 N 11 16 1009.1 - 0.2 - Cloudy 10 - - - -
15/12:30am 17.1 NNE 8 10 1008.9 - 0.2 - Partly cloudy 10 - - - -
15/12:00am 16.3 NE 9 10 1008.9 F 0.2 Fine Mostly cloudy 35 - - - -
 
Date/Time
CST
Temp
°C
Wind Pressure Rain since
9am
mm
Weather Cloud Vis
km
Sea
Height
m
Swell
Dir  Spd
kts
Gust
kts
hPa Trend Height
m
Period
s
Dir
14/11:30pm 16.1 NE 7 9 1009.6 - 0.2 - Partly cloudy 10 - - - -
14/11:00pm 16.4 NE 7 8 1009.8 - 0.2 - Partly cloudy 10 - - - -
14/10:30pm 16.3 NNE 7 8 1010.4 - 0.2 - Cloudy 10 - - - -
14/10:00pm 16.2 NNE 6 7 1010.6 - 0.2 - Partly cloudy 10 - - - -
14/09:30pm 15.7 NE 5 5 1010.8 - 0.2 - Partly cloudy 10 - - - -
14/09:00pm 15.2 ENE 7 8 1010.6 F 0.2 Recent precip. Mostly cloudy 35 - - - -
14/08:30pm 16.2 ESE 4 6 1012.1 - 0.0 - Partly cloudy 10 - - - -
14/08:00pm 16.8 NE 3 5 1012.2 - 0.0 Rain Cloudy 10 - - - -
14/07:30pm 17.2 E 6 7 1011.0 - 0.0 - Partly cloudy 10 - - - -
14/07:00pm 17.4 NNE 8 10 1011.4 - 0.0 - Cloudy 10 - - - -
14/06:30pm 17.2 N 7 10 1012.3 - 0.0 - Partly cloudy 10 - - - -
14/06:00pm 17.4 NNW 5 5 1012.8 F 0.0 Rain Mostly cloudy 30 - - - -
14/05:30pm 16.9 NW 4 5 1012.4 - 0.0 - Partly cloudy 10 - - - -
14/05:00pm 17.0 SW 2 4 1011.8 - 0.0 - - 10 - - - -
14/04:30pm 16.9 CALM 0 0 1011.7 - 0.0 - - 10 - - - -
14/04:00pm 16.9 W 5 6 1012.5 - 0.0 - - 10 - - - -
14/03:30pm 16.8 W 5 7 1012.5 - 0.0 - - 10 - - - -
14/03:00pm 16.8 WSW 7 8 1012.8 F 0.0 Fine Mostly cloudy 30 - - - -
14/02:30pm 18.1 WNW 7 8 1012.9 - 0.0 - - 10 - - - -
14/02:00pm 18.5 WNW 8 12 1013.4 - 0.0 - - 10 - - - -
14/01:30pm 19.0 WNW 9 11 1014.0 - 0.0 - - 10 - - - -
14/01:00pm 20.7 N 8 13 1013.7 - 0.0 - - 10 - - - -
14/12:30pm 19.9 NNE 6 9 1014.0 - 0.0 - Partly cloudy 10 - - - -
14/12:00pm 19.2 NNW 10 13 1015.3 F 0.0 Fine Mostly cloudy 30 - - - -
14/11:30am 17.2 NNW 7 10 1016.0 - 0.0 - - 10 - - - -
14/11:00am 18.0 NNE 7 9 1016.0 - 0.0 - - 10 - - - -
14/10:30am 19.0 N 7 9 1016.2 - 0.0 - - 10 - - - -
14/10:00am 18.2 N 6 8 1016.4 - 0.0 - Partly cloudy 10 - - - -
14/09:30am 16.7 N 7 8 1016.6 - 0.0 - Partly cloudy 10 - - - -
14/09:00am 16.0 NE 5 7 1016.8 F 0.0 Fine Mostly cloudy 40 - - - -
14/08:30am 14.5 ENE 3 4 1016.9 - 0.0 - Partly cloudy 10 - - - -
14/08:00am 13.5 ENE 5 5 1016.8 - 0.0 - - 10 - - - -
14/07:30am 12.5 NE 6 7 1017.0 - 0.0 - Partly cloudy 10 - - - -

Other Formats:

Comma delimited format used in spreadsheet applications
http://www.bom.gov.au/fwo/IDS60701/IDS60701.94672.axf

JavaScript Object Notation format (JSON) in row-major order
http://www.bom.gov.au/fwo/IDS60701/IDS60701.94672.json